Time;durP1;ratioP1;P1;durP2;ratioP2;P2;SDS_P1;SDS_P2;PMS_P1;PMS_P2;Temp;Humidity;BMP_temperature;BMP_pressure;BME280_temperature;BME280_humidity;BME280_pressure;Samples;Min_cycle;Max_cycle;Signal;HPM_P1;HPM_P2
2023/10/14 00:01:14;;;;;;;8.33;4.53;;;;;;;;;;5102345;28;20217;-64
2023/10/14 00:03:43;;;;;;;6.10;4.40;;;;;;;;;;5112229;28;20199;-64
2023/10/14 00:06:12;;;;;;;11.70;5.23;;;;;;;;;;5104333;28;20212;-64
2023/10/14 00:08:51;;;;;;;7.77;4.47;;;;;;;;;;5111822;28;20239;-64
2023/10/14 00:11:19;;;;;;;9.10;4.93;;;;;;;;;;5114604;28;20233;-64
2023/10/14 00:13:48;;;;;;;8.23;4.50;;;;;;;;;;5100648;28;20352;-64
2023/10/14 00:16:29;;;;;;;6.73;4.40;;;;;;;;;;5100043;28;20219;-64
2023/10/14 00:18:58;;;;;;;7.17;4.80;;;;;;;;;;5100564;28;20209;-64
2023/10/14 00:21:27;;;;;;;9.33;4.67;;;;;;;;;;5100146;28;20228;-64
2023/10/14 00:23:57;;;;;;;10.80;5.37;;;;;;;;;;5100125;28;20203;-64
2023/10/14 00:26:25;;;;;;;5.53;4.33;;;;;;;;;;5100469;28;20228;-64
2023/10/14 00:28:55;;;;;;;10.90;4.50;;;;;;;;;;5099685;28;20205;-64
2023/10/14 00:31:25;;;;;;;5.57;4.83;;;;;;;;;;5098859;28;20225;-64
2023/10/14 00:33:56;;;;;;;8.00;5.30;;;;;;;;;;5100392;28;20302;-64
2023/10/14 00:36:30;;;;;;;6.93;4.90;;;;;;;;;;5109567;28;20211;-64
2023/10/14 00:38:59;;;;;;;9.37;5.20;;;;;;;;;;5120195;28;20200;-64
2023/10/14 00:41:27;;;;;;;7.70;5.07;;;;;;;;;;5106848;28;20229;-64
2023/10/14 00:43:56;;;;;;;6.57;4.10;;;;;;;;;;5105076;28;20205;-64
2023/10/14 00:46:31;;;;;;;7.63;5.17;;;;;;;;;;5119195;28;20246;-64
2023/10/14 00:49:04;;;;;;;7.63;5.03;;;;;;;;;;5120375;28;20200;-63
2023/10/14 00:51:34;;;;;;;5.17;4.17;;;;;;;;;;5118976;28;20288;-64
2023/10/14 00:54:03;;;;;;;8.20;4.77;;;;;;;;;;5120187;28;20272;-63
2023/10/14 00:56:32;;;;;;;6.73;4.80;;;;;;;;;;5100356;28;20209;-64
2023/10/14 00:59:03;;;;;;;8.43;4.87;;;;;;;;;;5102954;28;20223;-64
2023/10/14 01:01:49;;;;;;;7.67;4.83;;;;;;;;;;5117622;28;20225;-64
2023/10/14 01:04:19;;;;;;;8.20;5.23;;;;;;;;;;5119962;28;20214;-64
2023/10/14 01:07:02;;;;;;;9.60;4.70;;;;;;;;;;5099593;28;20251;-64
2023/10/14 01:09:42;;;;;;;12.63;5.13;;;;;;;;;;5111564;28;20255;-64
2023/10/14 01:12:19;;;;;;;7.07;5.07;;;;;;;;;;5109768;28;20226;-64
2023/10/14 01:14:52;;;;;;;8.10;4.67;;;;;;;;;;5118225;28;20580;-64
2023/10/14 01:17:28;;;;;;;6.23;4.70;;;;;;;;;;5102085;28;20200;-64
2023/10/14 01:19:59;;;;;;;5.63;4.80;;;;;;;;;;5118475;28;20549;-64
2023/10/14 01:22:29;;;;;;;5.37;4.80;;;;;;;;;;5119679;28;20250;-64
2023/10/14 01:24:57;;;;;;;7.17;4.83;;;;;;;;;;5112721;28;20205;-64
2023/10/14 01:27:34;;;;;;;6.67;4.70;;;;;;;;;;5098842;28;20202;-64
2023/10/14 01:30:08;;;;;;;10.73;5.60;;;;;;;;;;5104861;28;20238;-64
2023/10/14 01:32:48;;;;;;;12.07;4.93;;;;;;;;;;5120252;27;20231;-63
2023/10/14 01:35:24;;;;;;;6.73;4.93;;;;;;;;;;5117939;27;20211;-63
2023/10/14 01:37:54;;;;;;;10.37;5.07;;;;;;;;;;5117508;27;20196;-64
2023/10/14 01:40:29;;;;;;;8.00;4.70;;;;;;;;;;5117739;27;20228;-63
2023/10/14 01:43:05;;;;;;;8.17;5.20;;;;;;;;;;5117941;27;20199;-64
2023/10/14 01:45:42;;;;;;;9.17;5.63;;;;;;;;;;5120571;27;20727;-63
2023/10/14 01:48:14;;;;;;;9.67;4.90;;;;;;;;;;5123053;27;20200;-63
2023/10/14 01:50:46;;;;;;;9.13;5.23;;;;;;;;;;5119520;27;20645;-64
2023/10/14 01:53:18;;;;;;;10.50;5.50;;;;;;;;;;5128612;27;20229;-64
2023/10/14 01:55:47;;;;;;;11.47;5.77;;;;;;;;;;5125242;27;20226;-63
2023/10/14 01:58:22;;;;;;;6.97;5.40;;;;;;;;;;5121371;27;20770;-64
2023/10/14 02:00:58;;;;;;;9.40;5.17;;;;;;;;;;5116842;27;20271;-64
2023/10/14 02:03:32;;;;;;;6.83;5.50;;;;;;;;;;5120575;27;20210;-63
2023/10/14 02:06:04;;;;;;;6.63;4.80;;;;;;;;;;5121937;27;20198;-63
2023/10/14 02:08:33;;;;;;;6.07;4.67;;;;;;;;;;5125315;27;20309;-63
2023/10/14 02:11:04;;;;;;;8.00;5.60;;;;;;;;;;5121494;27;20222;-63
2023/10/14 02:13:36;;;;;;;7.93;5.67;;;;;;;;;;5125326;27;20284;-63
2023/10/14 02:16:07;;;;;;;11.07;5.70;;;;;;;;;;5127125;27;20199;-63
2023/10/14 02:18:37;;;;;;;9.67;5.27;;;;;;;;;;5125301;27;20195;-63
2023/10/14 02:21:06;;;;;;;8.17;5.53;;;;;;;;;;5122965;27;20223;-63
2023/10/14 02:23:44;;;;;;;8.60;5.93;;;;;;;;;;5122869;27;20279;-63
2023/10/14 02:26:16;;;;;;;9.40;5.47;;;;;;;;;;5121832;27;20674;-63
2023/10/14 02:28:47;;;;;;;13.07;6.13;;;;;;;;;;5121459;27;20191;-63
2023/10/14 02:31:28;;;;;;;10.47;5.60;;;;;;;;;;5123905;27;20218;-63
2023/10/14 02:33:57;;;;;;;9.37;6.10;;;;;;;;;;5121186;27;20249;-63
2023/10/14 02:36:29;;;;;;;6.50;5.30;;;;;;;;;;5122314;27;20206;-63
2023/10/14 02:38:58;;;;;;;10.40;5.87;;;;;;;;;;5124174;27;20286;-63
2023/10/14 02:41:31;;;;;;;12.47;5.63;;;;;;;;;;5123453;27;20340;-63
2023/10/14 02:44:19;;;;;;;9.77;6.30;;;;;;;;;;5127135;27;20274;-63
2023/10/14 02:46:48;;;;;;;7.97;5.80;;;;;;;;;;5123264;28;20545;-63
2023/10/14 02:49:18;;;;;;;11.17;6.50;;;;;;;;;;5124876;28;20211;-63
2023/10/14 02:51:47;;;;;;;8.37;5.17;;;;;;;;;;5120195;28;20306;-63
2023/10/14 02:54:26;;;;;;;8.90;5.50;;;;;;;;;;5125746;28;20248;-63
2023/10/14 02:56:59;;;;;;;10.77;6.33;;;;;;;;;;5124175;28;20225;-63
2023/10/14 02:59:43;;;;;;;11.83;6.10;;;;;;;;;;5118938;28;20263;-63
2023/10/14 03:02:24;;;;;;;6.87;5.13;;;;;;;;;;5122825;28;20583;-63
2023/10/14 03:05:08;;;;;;;10.80;5.97;;;;;;;;;;5122375;28;20233;-63
2023/10/14 03:07:45;;;;;;;6.97;5.43;;;;;;;;;;5126854;28;20226;-63
2023/10/14 03:10:34;;;;;;;13.13;6.57;;;;;;;;;;5101069;28;20585;-63
2023/10/14 03:13:02;;;;;;;10.00;5.83;;;;;;;;;;5095716;28;20235;-63
2023/10/14 03:15:38;;;;;;;10.23;5.80;;;;;;;;;;5095481;28;20677;-64
2023/10/14 03:18:07;;;;;;;9.13;5.83;;;;;;;;;;5100382;28;20622;-64
2023/10/14 03:20:39;;;;;;;11.80;6.17;;;;;;;;;;5117387;28;20233;-63
2023/10/14 03:23:11;;;;;;;8.63;5.70;;;;;;;;;;5117553;28;20208;-64
2023/10/14 03:25:41;;;;;;;9.00;5.70;;;;;;;;;;5099396;28;20195;-63
2023/10/14 03:28:13;;;;;;;8.73;5.60;;;;;;;;;;5117797;28;20217;-64
2023/10/14 03:30:44;;;;;;;8.63;5.53;;;;;;;;;;5110728;28;20253;-64
2023/10/14 03:33:13;;;;;;;11.23;5.60;;;;;;;;;;5117876;28;20227;-63
2023/10/14 03:35:43;;;;;;;6.40;4.97;;;;;;;;;;5102021;28;20226;-63
2023/10/14 03:38:25;;;;;;;8.93;6.03;;;;;;;;;;5100014;28;20208;-63
2023/10/14 03:41:03;;;;;;;7.77;5.73;;;;;;;;;;5106047;28;20312;-63
2023/10/14 03:43:42;;;;;;;9.13;5.67;;;;;;;;;;5106727;28;20287;-64
2023/10/14 03:46:12;;;;;;;8.67;5.57;;;;;;;;;;5119154;28;20565;-64
2023/10/14 03:48:47;;;;;;;9.33;5.50;;;;;;;;;;5121559;28;20201;-64
2023/10/14 03:51:24;;;;;;;9.53;5.93;;;;;;;;;;5120519;28;20225;-63
2023/10/14 03:53:53;;;;;;;9.27;5.80;;;;;;;;;;5119745;28;20221;-63
2023/10/14 03:56:25;;;;;;;8.47;5.73;;;;;;;;;;5102610;27;20202;-63
2023/10/14 03:58:57;;;;;;;9.27;5.70;;;;;;;;;;5100460;28;20203;-63
2023/10/14 04:01:33;;;;;;;8.57;5.57;;;;;;;;;;5104746;28;20219;-63
2023/10/14 04:04:14;;;;;;;8.00;5.60;;;;;;;;;;5114862;28;20206;-63
2023/10/14 04:06:51;;;;;;;8.87;5.30;;;;;;;;;;5116292;28;20194;-64
2023/10/14 04:09:24;;;;;;;9.47;5.57;;;;;;;;;;5117175;28;20228;-64
2023/10/14 04:11:58;;;;;;;8.60;5.40;;;;;;;;;;5120919;27;20732;-64
2023/10/14 04:14:28;;;;;;;7.97;5.87;;;;;;;;;;5103114;28;20228;-64
2023/10/14 04:17:10;;;;;;;8.47;5.53;;;;;;;;;;5100437;28;20206;-64
2023/10/14 04:19:46;;;;;;;11.57;5.60;;;;;;;;;;5100273;28;20687;-63
2023/10/14 04:22:31;;;;;;;7.53;5.30;;;;;;;;;;5100544;28;20201;-64
2023/10/14 04:25:18;;;;;;;8.57;5.70;;;;;;;;;;5100363;28;20195;-64
2023/10/14 04:30:42;;;;;;;7.70;4.63;;;;;;;;;;5097295;28;20256;-63
2023/10/14 04:33:26;;;;;;;11.57;6.33;;;;;;;;;;5099775;28;20267;-64
2023/10/14 04:36:18;;;;;;;6.87;5.30;;;;;;;;;;5116039;28;20206;-63
2023/10/14 04:39:01;;;;;;;12.40;5.90;;;;;;;;;;5120231;28;20300;-63
2023/10/14 04:41:30;;;;;;;5.37;4.87;;;;;;;;;;5109056;28;20226;-63
2023/10/14 04:44:03;;;;;;;8.47;5.90;;;;;;;;;;5104586;28;20217;-63
2023/10/14 04:46:46;;;;;;;6.97;5.10;;;;;;;;;;5119405;28;20210;-64
2023/10/14 04:49:16;;;;;;;7.90;5.07;;;;;;;;;;5107590;27;20207;-64
2023/10/14 04:51:47;;;;;;;12.73;5.67;;;;;;;;;;5113001;28;20225;-63
2023/10/14 04:54:19;;;;;;;7.83;5.40;;;;;;;;;;5119193;28;20222;-64
2023/10/14 04:56:48;;;;;;;8.17;5.80;;;;;;;;;;5119051;28;20242;-63
2023/10/14 04:59:24;;;;;;;10.37;5.50;;;;;;;;;;5109709;28;20242;-64
2023/10/14 05:01:55;;;;;;;10.20;6.13;;;;;;;;;;5110838;28;20233;-63
2023/10/14 05:04:30;;;;;;;7.87;5.47;;;;;;;;;;5119211;28;20228;-64
2023/10/14 05:07:03;;;;;;;10.70;5.83;;;;;;;;;;5099682;28;20212;-63
2023/10/14 05:09:39;;;;;;;9.00;5.53;;;;;;;;;;5103653;28;20234;-63
2023/10/14 05:12:09;;;;;;;7.90;5.47;;;;;;;;;;5119282;28;20354;-63
2023/10/14 05:14:39;;;;;;;9.77;5.90;;;;;;;;;;5107054;28;20706;-63
2023/10/14 05:17:16;;;;;;;8.97;6.00;;;;;;;;;;5106989;28;20203;-63
2023/10/14 05:19:47;;;;;;;7.57;5.40;;;;;;;;;;5118595;28;20202;-63
2023/10/14 05:22:19;;;;;;;11.97;5.60;;;;;;;;;;5119752;28;20206;-63
2023/10/14 05:24:49;;;;;;;10.27;5.83;;;;;;;;;;5115060;28;20565;-63
2023/10/14 05:27:19;;;;;;;8.37;5.73;;;;;;;;;;5106931;28;20309;-63
2023/10/14 05:29:51;;;;;;;10.13;6.00;;;;;;;;;;5109734;28;20212;-64
2023/10/14 05:32:23;;;;;;;11.97;5.90;;;;;;;;;;5100799;28;20268;-63
2023/10/14 05:34:53;;;;;;;9.70;5.90;;;;;;;;;;5106813;28;20226;-65
2023/10/14 05:37:22;;;;;;;14.47;6.43;;;;;;;;;;5118231;28;20270;-65
2023/10/14 05:39:54;;;;;;;6.70;5.63;;;;;;;;;;5115491;28;20254;-65
2023/10/14 05:42:24;;;;;;;9.87;5.83;;;;;;;;;;5101144;28;20666;-65
2023/10/14 05:44:57;;;;;;;9.20;6.30;;;;;;;;;;5108554;28;20201;-65
2023/10/14 05:47:27;;;;;;;8.80;5.53;;;;;;;;;;5099471;28;20206;-65
2023/10/14 05:49:55;;;;;;;8.47;5.23;;;;;;;;;;5101951;27;20691;-65
2023/10/14 05:52:24;;;;;;;9.43;5.87;;;;;;;;;;5113526;28;20206;-64
2023/10/14 05:54:52;;;;;;;9.00;5.87;;;;;;;;;;5118922;28;20232;-65
2023/10/14 05:57:22;;;;;;;9.73;5.67;;;;;;;;;;5115537;28;20230;-65
2023/10/14 05:59:50;;;;;;;9.80;5.47;;;;;;;;;;5104978;28;20634;-65
2023/10/14 06:02:20;;;;;;;7.90;5.60;;;;;;;;;;5098275;28;20216;-65
2023/10/14 06:04:50;;;;;;;9.33;6.17;;;;;;;;;;5098240;28;20655;-65
2023/10/14 06:07:18;;;;;;;9.73;6.33;;;;;;;;;;5098297;28;20207;-65
2023/10/14 06:09:47;;;;;;;12.73;6.17;;;;;;;;;;5116023;28;20668;-65
2023/10/14 06:12:16;;;;;;;11.97;5.63;;;;;;;;;;5118838;28;20217;-65
2023/10/14 06:14:46;;;;;;;12.77;5.90;;;;;;;;;;5118608;28;20228;-65
2023/10/14 06:17:14;;;;;;;12.03;5.67;;;;;;;;;;5118603;28;20240;-65
2023/10/14 06:19:44;;;;;;;7.70;6.10;;;;;;;;;;5118941;28;20203;-65
2023/10/14 06:22:13;;;;;;;9.10;5.60;;;;;;;;;;5118994;28;20688;-65
2023/10/14 06:24:42;;;;;;;9.67;5.67;;;;;;;;;;5117022;28;20246;-65
2023/10/14 06:27:20;;;;;;;8.03;5.20;;;;;;;;;;5098222;28;20225;-66
2023/10/14 06:29:50;;;;;;;8.83;5.60;;;;;;;;;;5097658;28;20257;-65
2023/10/14 06:32:19;;;;;;;9.80;5.70;;;;;;;;;;5097801;28;20563;-65
2023/10/14 06:34:57;;;;;;;9.13;5.90;;;;;;;;;;5097939;28;20308;-65
2023/10/14 06:37:27;;;;;;;7.00;5.40;;;;;;;;;;5097993;28;20218;-65
2023/10/14 06:39:56;;;;;;;9.50;5.50;;;;;;;;;;5104538;28;20231;-65
2023/10/14 06:42:26;;;;;;;12.13;5.90;;;;;;;;;;5102780;28;20226;-65
2023/10/14 06:44:55;;;;;;;12.00;6.17;;;;;;;;;;5098076;28;20280;-65
2023/10/14 06:47:24;;;;;;;7.80;5.53;;;;;;;;;;5097492;28;20204;-65
2023/10/14 06:49:54;;;;;;;9.47;5.63;;;;;;;;;;5101299;28;20232;-65
2023/10/14 06:52:22;;;;;;;9.97;5.37;;;;;;;;;;5112245;28;20267;-65
2023/10/14 06:54:53;;;;;;;10.40;5.30;;;;;;;;;;5109664;28;20242;-65
2023/10/14 06:57:22;;;;;;;10.17;4.80;;;;;;;;;;5097209;28;20642;-65
2023/10/14 06:59:51;;;;;;;8.17;4.93;;;;;;;;;;5104371;28;20651;-65
2023/10/14 07:02:21;;;;;;;7.83;5.20;;;;;;;;;;5118094;28;20206;-65
2023/10/14 07:04:50;;;;;;;12.77;6.60;;;;;;;;;;5108567;28;20197;-65
2023/10/14 07:07:20;;;;;;;12.73;6.00;;;;;;;;;;5097476;28;20207;-65
2023/10/14 07:09:48;;;;;;;13.97;5.50;;;;;;;;;;5098831;28;20221;-64
2023/10/14 07:12:19;;;;;;;8.30;5.90;;;;;;;;;;5122773;27;20200;-65
2023/10/14 07:14:48;;;;;;;8.40;6.37;;;;;;;;;;5101538;28;20286;-65
2023/10/14 07:17:22;;;;;;;6.73;5.90;;;;;;;;;;5103508;28;20238;-65
2023/10/14 07:19:50;;;;;;;9.87;6.30;;;;;;;;;;5101438;28;20256;-64
2023/10/14 07:22:21;;;;;;;11.20;7.33;;;;;;;;;;5101553;28;20235;-64
2023/10/14 07:24:50;;;;;;;11.40;6.57;;;;;;;;;;5101598;28;20215;-65
2023/10/14 07:27:20;;;;;;;7.23;6.07;;;;;;;;;;5101444;28;20678;-65
2023/10/14 07:29:48;;;;;;;11.10;7.37;;;;;;;;;;5108234;28;20235;-65
2023/10/14 07:32:19;;;;;;;8.70;6.73;;;;;;;;;;5121518;28;20548;-65
2023/10/14 07:34:50;;;;;;;8.73;6.00;;;;;;;;;;5103177;28;20207;-65
2023/10/14 07:37:20;;;;;;;10.17;5.70;;;;;;;;;;5112461;27;20716;-65
2023/10/14 07:39:52;;;;;;;10.47;6.30;;;;;;;;;;5108269;28;20204;-65
2023/10/14 07:42:21;;;;;;;11.27;6.37;;;;;;;;;;5111852;28;20234;-65
2023/10/14 07:44:52;;;;;;;10.57;6.80;;;;;;;;;;5112226;28;20204;-62
2023/10/14 07:47:21;;;;;;;16.47;8.10;;;;;;;;;;5100713;28;20558;-65
2023/10/14 07:49:50;;;;;;;55.43;20.93;;;;;;;;;;5101781;28;20766;-65
2023/10/14 07:52:20;;;;;;;30.93;16.77;;;;;;;;;;5121045;28;20215;-65
2023/10/14 07:54:51;;;;;;;28.33;13.10;;;;;;;;;;5117038;28;20598;-65
2023/10/14 07:57:19;;;;;;;24.97;12.63;;;;;;;;;;5100534;28;20220;-65
2023/10/14 07:59:50;;;;;;;23.37;9.77;;;;;;;;;;5101972;28;20691;-65
2023/10/14 08:02:18;;;;;;;23.70;10.70;;;;;;;;;;5101522;28;20228;-65
2023/10/14 08:04:47;;;;;;;21.63;9.63;;;;;;;;;;5102094;28;20206;-65
2023/10/14 08:07:15;;;;;;;14.47;6.57;;;;;;;;;;5105854;27;20229;-65
2023/10/14 08:09:44;;;;;;;10.50;6.33;;;;;;;;;;5100466;28;20215;-65
2023/10/14 08:12:14;;;;;;;17.30;7.83;;;;;;;;;;5100625;28;20334;-65
2023/10/14 08:14:44;;;;;;;9.17;5.90;;;;;;;;;;5100247;28;20205;-65
2023/10/14 08:17:12;;;;;;;11.57;6.17;;;;;;;;;;5099870;28;20712;-65
2023/10/14 08:19:41;;;;;;;13.13;6.23;;;;;;;;;;5100292;28;20276;-65
2023/10/14 08:22:14;;;;;;;9.37;4.70;;;;;;;;;;5115842;28;20203;-65
2023/10/14 08:24:45;;;;;;;14.97;5.00;;;;;;;;;;5110761;28;20205;-65
2023/10/14 08:27:13;;;;;;;8.47;4.53;;;;;;;;;;5100064;28;20233;-67
2023/10/14 08:29:42;;;;;;;6.80;4.30;;;;;;;;;;5099631;28;20205;-65
2023/10/14 08:32:10;;;;;;;14.50;4.40;;;;;;;;;;5099802;28;20205;-65
2023/10/14 08:34:38;;;;;;;7.27;4.30;;;;;;;;;;5099592;28;20220;-65
2023/10/14 08:37:07;;;;;;;4.60;3.10;;;;;;;;;;5099677;28;20256;-63
2023/10/14 08:39:35;;;;;;;6.20;2.87;;;;;;;;;;5117917;28;20230;-63
2023/10/14 08:42:09;;;;;;;6.57;2.90;;;;;;;;;;5108139;28;20231;-63
2023/10/14 08:44:42;;;;;;;8.20;3.20;;;;;;;;;;5108207;28;20244;-63
2023/10/14 08:47:14;;;;;;;8.37;3.57;;;;;;;;;;5119848;28;20237;-63
2023/10/14 08:49:43;;;;;;;11.23;4.20;;;;;;;;;;5120184;28;20700;-64
2023/10/14 08:52:14;;;;;;;10.47;4.40;;;;;;;;;;5119968;28;20664;-63
2023/10/14 08:54:42;;;;;;;7.47;4.00;;;;;;;;;;5110840;27;20208;-64
2023/10/14 08:57:12;;;;;;;9.47;5.17;;;;;;;;;;5119799;28;20227;-64
2023/10/14 08:59:41;;;;;;;13.77;5.37;;;;;;;;;;5110995;28;20204;-64
2023/10/14 09:02:12;;;;;;;7.90;4.80;;;;;;;;;;5094827;28;20319;-64
2023/10/14 09:04:41;;;;;;;7.47;4.93;;;;;;;;;;5100618;28;20614;-64
2023/10/14 09:07:13;;;;;;;10.77;4.70;;;;;;;;;;5116213;28;20228;-64
2023/10/14 09:09:41;;;;;;;10.77;4.57;;;;;;;;;;5115164;28;20194;-64
2023/10/14 09:12:10;;;;;;;8.07;4.37;;;;;;;;;;5105078;28;20288;-64
2023/10/14 09:14:42;;;;;;;7.33;3.73;;;;;;;;;;5118581;28;20243;-64
2023/10/14 09:17:10;;;;;;;7.00;2.90;;;;;;;;;;5099098;28;20278;-64
2023/10/14 09:19:50;;;;;;;5.13;2.70;;;;;;;;;;5098951;28;21694;-64
2023/10/14 09:22:22;;;;;;;4.40;2.67;;;;;;;;;;5099036;28;20649;-64
2023/10/14 09:24:51;;;;;;;7.20;2.83;;;;;;;;;;5098781;28;20208;-64
2023/10/14 09:27:19;;;;;;;6.67;2.77;;;;;;;;;;5099177;28;20212;-64
2023/10/14 09:29:49;;;;;;;4.90;2.63;;;;;;;;;;5110227;28;20212;-64
2023/10/14 09:32:17;;;;;;;5.27;2.90;;;;;;;;;;5113003;28;20212;-64
2023/10/14 09:34:45;;;;;;;3.00;2.20;;;;;;;;;;5098095;28;20213;-64
2023/10/14 09:37:17;;;;;;;5.43;2.30;;;;;;;;;;5099125;28;20237;-64
2023/10/14 09:39:49;;;;;;;3.27;2.00;;;;;;;;;;5100417;28;20209;-64
2023/10/14 09:42:18;;;;;;;5.73;2.83;;;;;;;;;;5104088;28;20205;-64
2023/10/14 09:44:48;;;;;;;3.07;1.60;;;;;;;;;;5107950;28;20215;-64
2023/10/14 09:47:19;;;;;;;2.70;1.70;;;;;;;;;;5103105;28;20235;-63
2023/10/14 09:49:48;;;;;;;6.40;2.10;;;;;;;;;;5108311;28;20269;-64
2023/10/14 09:52:17;;;;;;;3.80;2.00;;;;;;;;;;5102439;28;20288;-63
2023/10/14 09:54:49;;;;;;;5.03;1.67;;;;;;;;;;5098724;28;20205;-63
2023/10/14 09:57:19;;;;;;;3.37;1.57;;;;;;;;;;5098500;28;20229;-64
2023/10/14 09:59:47;;;;;;;4.17;1.87;;;;;;;;;;5104205;28;20292;-63
2023/10/14 10:02:16;;;;;;;5.50;2.10;;;;;;;;;;5098389;28;20620;-63
2023/10/14 10:04:47;;;;;;;4.37;1.70;;;;;;;;;;5099293;28;20289;-64
2023/10/14 10:07:23;;;;;;;3.80;1.43;;;;;;;;;;5102069;28;20200;-64
2023/10/14 10:10:01;;;;;;;4.60;1.70;;;;;;;;;;5098882;28;20201;-64
2023/10/14 10:12:31;;;;;;;5.03;1.87;;;;;;;;;;5099396;28;20206;-65
2023/10/14 10:15:02;;;;;;;2.80;1.37;;;;;;;;;;5097957;28;20279;-64
2023/10/14 10:17:34;;;;;;;4.60;1.60;;;;;;;;;;5099746;28;20222;-63
2023/10/14 10:20:09;;;;;;;3.93;1.67;;;;;;;;;;5104890;28;20235;-63
2023/10/14 10:22:41;;;;;;;2.27;1.30;;;;;;;;;;5097691;28;20218;-64
2023/10/14 10:25:11;;;;;;;4.33;1.63;;;;;;;;;;5097642;28;20625;-63
2023/10/14 10:27:40;;;;;;;4.47;1.73;;;;;;;;;;5097809;28;20272;-63
2023/10/14 10:30:11;;;;;;;8.20;1.60;;;;;;;;;;5098330;28;20326;-64
2023/10/14 10:32:41;;;;;;;2.37;1.07;;;;;;;;;;5097648;28;20257;-63
2023/10/14 10:35:17;;;;;;;2.27;1.20;;;;;;;;;;5100805;28;20233;-62
2023/10/14 10:37:49;;;;;;;1.77;1.23;;;;;;;;;;5097693;28;20633;-63
2023/10/14 10:40:18;;;;;;;1.50;1.40;;;;;;;;;;5103074;28;20307;-63
2023/10/14 10:42:47;;;;;;;3.50;1.50;;;;;;;;;;5111754;28;20253;-62
2023/10/14 10:45:20;;;;;;;3.73;1.70;;;;;;;;;;5102013;28;20560;-62
2023/10/14 10:47:54;;;;;;;3.00;1.30;;;;;;;;;;5117832;28;20234;-62
2023/10/14 10:50:26;;;;;;;2.60;1.03;;;;;;;;;;5117736;28;20731;-61
2023/10/14 10:53:16;;;;;;;2.53;1.63;;;;;;;;;;5110660;28;20277;-63
2023/10/14 10:55:46;;;;;;;4.53;1.53;;;;;;;;;;5126276;28;20677;-62
2023/10/14 10:58:14;;;;;;;3.33;1.40;;;;;;;;;;5118416;28;20225;-63
2023/10/14 11:00:45;;;;;;;1.70;1.17;;;;;;;;;;5104056;28;20232;-63
2023/10/14 11:03:14;;;;;;;1.57;1.10;;;;;;;;;;5110170;28;20207;-61
2023/10/14 11:05:44;;;;;;;3.33;1.53;;;;;;;;;;5117940;28;20213;-61
2023/10/14 11:08:15;;;;;;;2.80;1.30;;;;;;;;;;5105583;28;20266;-62
2023/10/14 11:10:44;;;;;;;2.57;1.40;;;;;;;;;;5095674;28;20220;-61
2023/10/14 11:13:13;;;;;;;1.87;1.20;;;;;;;;;;5096950;28;20206;-61
2023/10/14 11:15:43;;;;;;;3.30;1.40;;;;;;;;;;5096988;28;20292;-61
2023/10/14 11:18:13;;;;;;;4.77;1.70;;;;;;;;;;5097182;28;20228;-63
2023/10/14 11:20:56;;;;;;;2.97;1.50;;;;;;;;;;5101419;28;20225;-60
2023/10/14 11:23:24;;;;;;;3.20;1.60;;;;;;;;;;5097669;28;20208;-61
2023/10/14 11:25:54;;;;;;;5.93;1.80;;;;;;;;;;5097377;28;20289;-63
2023/10/14 11:28:26;;;;;;;3.60;1.67;;;;;;;;;;5097221;28;20204;-61
2023/10/14 11:30:55;;;;;;;2.17;1.50;;;;;;;;;;5098443;28;20227;-64
2023/10/14 11:33:25;;;;;;;3.03;1.37;;;;;;;;;;5098499;28;20672;-64
2023/10/14 11:35:53;;;;;;;3.13;1.23;;;;;;;;;;5097145;28;20727;-64
2023/10/14 11:38:25;;;;;;;4.47;1.40;;;;;;;;;;5097440;28;20255;-64
2023/10/14 11:40:54;;;;;;;6.77;1.70;;;;;;;;;;5102773;28;20230;-64
2023/10/14 11:43:22;;;;;;;2.67;1.40;;;;;;;;;;5097078;28;20291;-62
2023/10/14 11:45:52;;;;;;;4.27;1.60;;;;;;;;;;5097223;28;20226;-62
2023/10/14 11:48:22;;;;;;;3.20;1.30;;;;;;;;;;5103051;28;20206;-62
2023/10/14 11:50:52;;;;;;;4.20;1.40;;;;;;;;;;5117590;28;20242;-62
2023/10/14 11:53:27;;;;;;;3.20;1.43;;;;;;;;;;5117145;28;20225;-64
2023/10/14 11:55:58;;;;;;;3.17;1.57;;;;;;;;;;5117684;28;20675;-64
2023/10/14 11:58:30;;;;;;;1.80;1.40;;;;;;;;;;5120249;28;20234;-63
2023/10/14 12:00:59;;;;;;;4.30;1.73;;;;;;;;;;5109220;28;20270;-62
2023/10/14 12:03:27;;;;;;;2.23;1.70;;;;;;;;;;5100550;28;20753;-64
2023/10/14 12:05:57;;;;;;;2.87;1.00;;;;;;;;;;5111510;28;20218;-64
2023/10/14 12:08:28;;;;;;;1.33;1.00;;;;;;;;;;5120824;28;20317;-63
2023/10/14 12:10:57;;;;;;;1.43;0.97;;;;;;;;;;5120826;28;20706;-64
2023/10/14 12:13:25;;;;;;;3.13;1.00;;;;;;;;;;5121102;28;20328;-64
2023/10/14 12:16:13;;;;;;;2.80;1.20;;;;;;;;;;5103099;28;20205;-64
2023/10/14 12:18:43;;;;;;;3.37;0.90;;;;;;;;;;5100566;28;20230;-64
2023/10/14 12:21:11;;;;;;;2.13;0.83;;;;;;;;;;5100342;28;20296;-62
2023/10/14 12:23:40;;;;;;;1.27;0.90;;;;;;;;;;5100995;28;20295;-62
2023/10/14 12:26:13;;;;;;;1.37;0.73;;;;;;;;;;5105512;27;20208;-64
2023/10/14 12:28:44;;;;;;;1.13;0.80;;;;;;;;;;5100283;28;20207;-64
2023/10/14 12:31:12;;;;;;;3.00;1.13;;;;;;;;;;5099719;28;20234;-62
2023/10/14 12:33:41;;;;;;;2.40;1.10;;;;;;;;;;5100159;28;20606;-62
2023/10/14 12:36:10;;;;;;;1.47;0.90;;;;;;;;;;5099962;28;20212;-62
2023/10/14 12:38:42;;;;;;;2.23;1.13;;;;;;;;;;5100016;28;20227;-62
2023/10/14 12:41:13;;;;;;;2.40;0.97;;;;;;;;;;5113659;28;20645;-63
2023/10/14 12:43:41;;;;;;;2.80;1.10;;;;;;;;;;5099956;28;20219;-61
2023/10/14 12:46:14;;;;;;;0.80;0.80;;;;;;;;;;5099911;28;20212;-61
2023/10/14 12:48:43;;;;;;;1.33;0.87;;;;;;;;;;5100014;28;20245;-61
2023/10/14 12:51:12;;;;;;;0.63;0.63;;;;;;;;;;5099643;28;20270;-62
2023/10/14 12:53:45;;;;;;;0.93;0.50;;;;;;;;;;5099762;28;20203;-63
2023/10/14 12:56:16;;;;;;;1.73;0.60;;;;;;;;;;5104728;28;20211;-62
2023/10/14 12:58:45;;;;;;;1.10;0.70;;;;;;;;;;5122308;27;20216;-62
2023/10/14 13:01:16;;;;;;;0.80;0.80;;;;;;;;;;5128544;27;20220;-62
2023/10/14 13:03:51;;;;;;;0.53;0.53;;;;;;;;;;5130157;27;20227;-63
2023/10/14 13:06:22;;;;;;;0.80;0.80;;;;;;;;;;5124851;27;20191;-63
2023/10/14 13:08:50;;;;;;;1.53;1.00;;;;;;;;;;5127570;27;20262;-66
2023/10/14 13:11:20;;;;;;;1.70;0.73;;;;;;;;;;5128165;27;20227;-63
2023/10/14 13:13:52;;;;;;;1.30;0.73;;;;;;;;;;5125190;27;20229;-63
2023/10/14 13:16:21;;;;;;;1.93;0.70;;;;;;;;;;5125948;27;20254;-64
2023/10/14 13:18:49;;;;;;;1.40;0.90;;;;;;;;;;5103620;28;20248;-63
2023/10/14 13:21:19;;;;;;;2.20;0.77;;;;;;;;;;5098581;28;20309;-63
2023/10/14 13:23:47;;;;;;;1.00;0.60;;;;;;;;;;5101462;28;20228;-61
2023/10/14 13:26:15;;;;;;;0.87;0.70;;;;;;;;;;5116790;28;20648;-62
2023/10/14 13:28:50;;;;;;;0.57;0.57;;;;;;;;;;5103434;28;20219;-63
2023/10/14 13:31:19;;;;;;;0.60;0.60;;;;;;;;;;5111762;28;20240;-64
2023/10/14 13:33:47;;;;;;;1.27;1.00;;;;;;;;;;5098918;28;20229;-62
2023/10/14 13:36:16;;;;;;;1.77;0.60;;;;;;;;;;5098772;28;20671;-62
2023/10/14 13:38:43;;;;;;;1.00;0.80;;;;;;;;;;5098627;28;20581;-62
2023/10/14 13:41:15;;;;;;;3.60;0.50;;;;;;;;;;5099873;28;20598;-62
2023/10/14 13:43:43;;;;;;;0.47;0.40;;;;;;;;;;5099046;28;20211;-62
2023/10/14 13:46:13;;;;;;;0.87;0.40;;;;;;;;;;5098572;28;20205;-62
2023/10/14 13:48:41;;;;;;;0.50;0.43;;;;;;;;;;5112032;28;20253;-61
2023/10/14 13:51:11;;;;;;;1.10;0.50;;;;;;;;;;5098330;28;20250;-61
2023/10/14 13:53:44;;;;;;;1.50;0.80;;;;;;;;;;5098677;28;20210;-64
2023/10/14 13:56:12;;;;;;;1.23;0.50;;;;;;;;;;5098657;28;20209;-63
2023/10/14 13:58:40;;;;;;;2.43;0.80;;;;;;;;;;5098678;28;20230;-63
2023/10/14 14:01:11;;;;;;;0.80;0.47;;;;;;;;;;5099361;28;20245;-64
2023/10/14 14:03:41;;;;;;;0.80;0.40;;;;;;;;;;5098828;28;20203;-64
2023/10/14 14:06:09;;;;;;;0.40;0.40;;;;;;;;;;5118998;28;20210;-64
2023/10/14 14:08:37;;;;;;;1.87;0.73;;;;;;;;;;5118494;28;20315;-64
2023/10/14 14:11:05;;;;;;;1.20;0.60;;;;;;;;;;5118395;28;20311;-63
2023/10/14 14:13:33;;;;;;;1.50;0.40;;;;;;;;;;5118843;28;20206;-63
2023/10/14 14:16:05;;;;;;;2.33;0.60;;;;;;;;;;5114563;28;20682;-63
2023/10/14 14:18:33;;;;;;;2.60;0.57;;;;;;;;;;5098022;28;20563;-64
2023/10/14 14:21:02;;;;;;;3.53;1.10;;;;;;;;;;5101016;28;20736;-64
2023/10/14 14:23:30;;;;;;;0.47;0.47;;;;;;;;;;5097839;28;20586;-64
2023/10/14 14:25:59;;;;;;;2.27;0.70;;;;;;;;;;5107922;28;20193;-63
2023/10/14 14:28:27;;;;;;;1.50;0.73;;;;;;;;;;5118644;28;20231;-63
2023/10/14 14:30:55;;;;;;;0.77;0.50;;;;;;;;;;5112497;28;20258;-64
2023/10/14 14:33:23;;;;;;;1.17;0.60;;;;;;;;;;5098569;28;20206;-64
2023/10/14 14:35:51;;;;;;;2.17;0.37;;;;;;;;;;5112313;28;20276;-62
2023/10/14 14:38:23;;;;;;;0.57;0.47;;;;;;;;;;5099015;28;20205;-62
2023/10/14 14:40:51;;;;;;;2.53;0.43;;;;;;;;;;5107568;28;20277;-64
2023/10/14 14:43:19;;;;;;;0.47;0.30;;;;;;;;;;5100953;28;20857;-64
2023/10/14 14:45:47;;;;;;;1.07;0.30;;;;;;;;;;5097394;28;20201;-64
2023/10/14 14:48:16;;;;;;;0.90;0.60;;;;;;;;;;5097481;28;20206;-63
2023/10/14 14:50:47;;;;;;;0.87;0.40;;;;;;;;;;5097665;28;20225;-63
2023/10/14 14:53:17;;;;;;;0.50;0.50;;;;;;;;;;5097561;28;20213;-63
2023/10/14 14:55:46;;;;;;;0.50;0.50;;;;;;;;;;5107311;28;20219;-63
2023/10/14 14:58:14;;;;;;;0.47;0.43;;;;;;;;;;5117816;28;20207;-63
2023/10/14 15:00:44;;;;;;;1.50;0.50;;;;;;;;;;5104334;28;20273;-64
2023/10/14 15:03:12;;;;;;;0.40;0.40;;;;;;;;;;5097675;28;20251;-64
2023/10/14 15:05:42;;;;;;;0.93;0.50;;;;;;;;;;5097551;28;20208;-63
2023/10/14 15:08:12;;;;;;;0.73;0.47;;;;;;;;;;5097598;28;20235;-64